Time;durP1;ratioP1;P1;durP2;ratioP2;P2;SDS_P1;SDS_P2;PMS_P1;PMS_P2;Temp;Humidity;BMP_temperature;BMP_pressure;BME280_temperature;BME280_humidity;BME280_pressure;Samples;Min_cycle;Max_cycle;Signal;HPM_P1;HPM_P2
2022/12/21 00:00:54;;;;;;;30.88;21.73;;;10.40;99.90;;;;;;5063778;28;19916;-60
2022/12/21 00:03:19;;;;;;;29.73;21.73;;;10.40;99.90;;;;;;5058825;28;20400;-59
2022/12/21 00:05:45;;;;;;;29.05;21.33;;;10.40;99.90;;;;;;5057810;28;20041;-60
2022/12/21 00:08:13;;;;;;;33.83;23.15;;;10.40;99.90;;;;;;5064427;28;20021;-60
2022/12/21 00:10:39;;;;;;;32.85;23.27;;;10.50;99.90;;;;;;5061752;28;20511;-60
2022/12/21 00:13:04;;;;;;;32.35;22.17;;;10.40;99.90;;;;;;5062237;28;20036;-60
2022/12/21 00:15:30;;;;;;;30.40;21.85;;;10.50;99.90;;;;;;5065660;28;20032;-60
2022/12/21 00:17:56;;;;;;;34.17;23.40;;;10.50;99.90;;;;;;5059239;28;20073;-60
2022/12/21 00:20:21;;;;;;;36.80;24.50;;;10.40;99.90;;;;;;5055531;28;20778;-60
2022/12/21 00:22:47;;;;;;;38.03;25.23;;;10.40;99.90;;;;;;5061770;28;20033;-60
2022/12/21 00:25:12;;;;;;;41.67;24.15;;;10.50;99.90;;;;;;5060718;28;20165;-61
2022/12/21 00:27:38;;;;;;;37.97;26.58;;;10.50;99.90;;;;;;5065506;28;20108;-61
2022/12/21 00:30:04;;;;;;;40.97;26.60;;;10.40;99.90;;;;;;5065830;28;20028;-60
2022/12/21 00:32:29;;;;;;;35.38;24.83;;;10.40;99.90;;;;;;5061355;28;20868;-61
2022/12/21 00:34:55;;;;;;;34.22;23.05;;;10.40;99.90;;;;;;5062684;28;20036;-61
2022/12/21 00:37:20;;;;;;;39.15;25.05;;;10.30;99.90;;;;;;5063665;28;20035;-61
2022/12/21 00:39:46;;;;;;;36.88;24.98;;;10.40;99.90;;;;;;5059457;28;20035;-60
2022/12/21 00:42:14;;;;;;;41.47;25.75;;;10.30;99.90;;;;;;5054539;28;20035;-60
2022/12/21 00:44:40;;;;;;;37.95;24.23;;;10.40;99.90;;;;;;5060463;28;20032;-60
2022/12/21 00:47:05;;;;;;;35.67;25.10;;;10.40;99.90;;;;;;5062331;28;20029;-60
2022/12/21 00:49:31;;;;;;;33.70;22.05;;;10.40;99.90;;;;;;5062398;28;20439;-60
2022/12/21 00:51:56;;;;;;;34.20;23.40;;;10.30;99.90;;;;;;5057912;28;20361;-61
2022/12/21 00:54:22;;;;;;;35.78;23.33;;;10.30;99.90;;;;;;5059982;28;20451;-60
2022/12/21 00:56:48;;;;;;;35.67;23.02;;;10.30;99.90;;;;;;5064515;28;20044;-61
2022/12/21 00:59:13;;;;;;;38.33;23.30;;;10.20;99.90;;;;;;5062773;28;20033;-61
2022/12/21 01:01:39;;;;;;;38.45;24.30;;;10.20;99.90;;;;;;5064565;28;20122;-60
2022/12/21 01:04:04;;;;;;;47.65;26.02;;;10.30;99.90;;;;;;5063963;28;20115;-60
2022/12/21 01:06:33;;;;;;;37.40;23.67;;;10.50;99.90;;;;;;5056412;28;20056;-59
2022/12/21 01:08:59;;;;;;;38.38;23.95;;;10.50;99.90;;;;;;5063508;28;20029;-61
2022/12/21 01:11:27;;;;;;;47.63;27.65;;;10.30;99.90;;;;;;5061038;28;20029;-61
2022/12/21 01:13:54;;;;;;;43.13;26.13;;;10.40;99.90;;;;;;5064807;28;20441;-60
2022/12/21 01:16:26;;;;;;;47.33;27.30;;;10.40;99.90;;;;;;5060472;28;20029;-60
2022/12/21 01:18:52;;;;;;;50.88;27.80;;;10.50;99.90;;;;;;5062342;28;20453;-60
2022/12/21 01:21:23;;;;;;;44.10;26.05;;;10.50;99.90;;;;;;5059869;28;20029;-61
2022/12/21 01:23:49;;;;;;;54.40;28.35;;;10.40;99.90;;;;;;5065858;28;20837;-60
2022/12/21 01:26:16;;;;;;;45.05;26.50;;;10.30;99.90;;;;;;5060988;28;20025;-60
2022/12/21 01:28:42;;;;;;;46.75;27.20;;;10.40;99.90;;;;;;5069976;28;20029;-60
2022/12/21 01:31:07;;;;;;;52.15;29.25;;;10.30;99.90;;;;;;5064872;28;20051;-60
2022/12/21 01:33:33;;;;;;;55.30;28.67;;;10.20;99.90;;;;;;5069358;28;20120;-60
2022/12/21 01:36:10;;;;;;;50.90;29.65;;;10.20;99.90;;;;;;5063234;28;20133;-60
2022/12/21 01:38:39;;;;;;;47.45;27.85;;;10.30;99.90;;;;;;5066796;28;20606;-60
2022/12/21 01:41:05;;;;;;;56.25;31.33;;;10.30;99.90;;;;;;5065193;28;20055;-60
2022/12/21 01:43:41;;;;;;;44.45;29.35;;;10.30;99.90;;;;;;5062345;28;20033;-60
2022/12/21 01:46:22;;;;;;;43.20;27.25;;;10.20;99.90;;;;;;5062463;28;20087;-60
2022/12/21 01:48:56;;;;;;;45.75;27.30;;;10.20;99.90;;;;;;5067090;28;20570;-60
2022/12/21 01:51:22;;;;;;;42.53;26.90;;;10.20;99.90;;;;;;5065894;28;20132;-60
2022/12/21 01:54:02;;;;;;;39.53;25.42;;;10.20;99.90;;;;;;5065832;28;20033;-60
2022/12/21 01:56:34;;;;;;;39.90;24.80;;;10.20;99.90;;;;;;5054191;28;20123;-60
2022/12/21 01:59:27;;;;;;;43.50;26.70;;;10.20;99.90;;;;;;5067252;28;20071;-61
2022/12/21 02:01:54;;;;;;;48.85;27.45;;;10.20;99.90;;;;;;5065974;28;20504;-60
2022/12/21 02:04:20;;;;;;;42.30;24.10;;;10.30;99.90;;;;;;5061222;28;20032;-60
2022/12/21 02:06:51;;;;;;;37.65;22.95;;;10.20;99.90;;;;;;5060760;28;20048;-60
2022/12/21 02:09:17;;;;;;;39.25;25.65;;;10.20;99.90;;;;;;5059484;28;20131;-60
2022/12/21 02:11:44;;;;;;;31.80;21.17;;;10.20;99.90;;;;;;5060225;28;20549;-61
2022/12/21 02:14:14;;;;;;;32.03;20.67;;;10.10;99.90;;;;;;5067104;28;20398;-60
2022/12/21 02:17:17;;;;;;;35.15;22.88;;;10.10;99.90;;;;;;5065273;28;20036;-60
2022/12/21 02:20:10;;;;;;;35.80;22.88;;;10.10;99.90;;;;;;5064017;28;20037;-60
2022/12/21 02:23:03;;;;;;;33.13;21.90;;;10.00;99.90;;;;;;5058400;28;20029;-59
2022/12/21 02:25:47;;;;;;;33.33;22.50;;;10.00;99.90;;;;;;5065962;28;20095;-61
2022/12/21 02:28:49;;;;;;;32.55;21.83;;;10.00;99.90;;;;;;5062875;28;20492;-60
2022/12/21 02:31:40;;;;;;;31.05;21.63;;;10.00;99.90;;;;;;5066795;28;20488;-60
2022/12/21 02:34:23;;;;;;;35.00;23.00;;;10.00;99.90;;;;;;5059569;28;20529;-60
2022/12/21 02:37:10;;;;;;;33.33;20.10;;;9.90;99.90;;;;;;5067911;28;20041;-60
2022/12/21 02:39:59;;;;;;;30.02;20.70;;;9.90;99.90;;;;;;5060182;28;20045;-60
2022/12/21 02:45:49;;;;;;;35.60;21.05;;;9.90;99.90;;;;;;5052491;28;20128;-60
2022/12/21 02:48:26;;;;;;;29.20;20.33;;;9.90;99.90;;;;;;5054610;28;20392;-60
2022/12/21 02:50:57;;;;;;;28.17;19.98;;;9.80;99.90;;;;;;5066030;28;20507;-60
2022/12/21 02:53:32;;;;;;;33.10;21.58;;;9.90;99.90;;;;;;5065755;28;20388;-60
2022/12/21 02:55:58;;;;;;;31.88;21.77;;;9.90;99.90;;;;;;5053800;28;20078;-60
2022/12/21 02:58:24;;;;;;;34.55;22.20;;;9.80;99.90;;;;;;5059204;28;20585;-60
2022/12/21 03:00:52;;;;;;;33.88;22.42;;;9.90;99.90;;;;;;5057420;28;20041;-60
2022/12/21 03:03:49;;;;;;;34.70;22.08;;;9.80;99.90;;;;;;5065518;28;20040;-60
2022/12/21 03:06:39;;;;;;;31.58;21.17;;;9.80;99.90;;;;;;5062219;28;20412;-60
2022/12/21 03:09:42;;;;;;;35.05;22.83;;;9.80;99.90;;;;;;5060283;28;20053;-60
2022/12/21 03:12:30;;;;;;;34.80;22.47;;;9.70;99.90;;;;;;5059761;28;20392;-60
2022/12/21 03:15:21;;;;;;;29.40;20.45;;;9.90;99.90;;;;;;5063383;28;20056;-60
2022/12/21 03:17:53;;;;;;;35.28;22.23;;;9.80;99.90;;;;;;5058511;28;20051;-60
2022/12/21 03:21:00;;;;;;;37.45;23.10;;;9.90;99.90;;;;;;5063622;28;20097;-60
2022/12/21 03:23:38;;;;;;;39.42;22.52;;;10.00;99.90;;;;;;5052798;28;20063;-60
2022/12/21 03:26:15;;;;;;;37.97;24.52;;;9.90;99.90;;;;;;5059615;28;20033;-60
2022/12/21 03:28:42;;;;;;;38.75;24.05;;;9.90;99.90;;;;;;5057192;28;20873;-59
2022/12/21 03:31:16;;;;;;;35.75;22.27;;;9.90;99.90;;;;;;5056462;28;20121;-60
2022/12/21 03:33:47;;;;;;;35.78;22.85;;;9.80;99.90;;;;;;5064108;28;20170;-60
2022/12/21 03:36:23;;;;;;;37.88;22.88;;;9.80;99.90;;;;;;5062362;28;20037;-60
2022/12/21 03:38:55;;;;;;;37.28;24.30;;;9.80;99.90;;;;;;5066172;28;20056;-60
2022/12/21 03:41:29;;;;;;;39.90;22.83;;;9.80;99.90;;;;;;5059695;28;20036;-60
2022/12/21 03:43:57;;;;;;;39.58;24.60;;;9.80;99.90;;;;;;5071886;28;20515;-60
2022/12/21 03:46:30;;;;;;;36.47;23.10;;;9.80;99.90;;;;;;5063688;28;20021;-60
2022/12/21 03:49:02;;;;;;;38.37;23.37;;;9.70;99.90;;;;;;5062927;28;20040;-60
2022/12/21 03:51:51;;;;;;;37.78;23.40;;;9.80;99.90;;;;;;5060442;28;20025;-59
2022/12/21 03:54:42;;;;;;;37.35;23.30;;;9.80;99.90;;;;;;5064441;28;20111;-60
2022/12/21 03:57:09;;;;;;;36.20;23.90;;;9.70;99.90;;;;;;5066084;28;20032;-60
2022/12/21 03:59:38;;;;;;;34.05;21.17;;;9.70;99.90;;;;;;5062853;28;20523;-60
2022/12/21 04:02:20;;;;;;;36.88;22.73;;;9.70;99.90;;;;;;5067966;28;20040;-59
2022/12/21 04:05:10;;;;;;;36.63;23.10;;;9.70;99.90;;;;;;5061934;28;20506;-59
2022/12/21 04:07:37;;;;;;;32.97;22.15;;;9.70;99.90;;;;;;5059807;28;20835;-61
2022/12/21 04:10:15;;;;;;;36.10;22.83;;;9.80;99.90;;;;;;5062878;28;20499;-59
2022/12/21 04:12:41;;;;;;;34.45;22.45;;;9.70;99.90;;;;;;5060109;28;20020;-59
2022/12/21 04:15:10;;;;;;;29.65;19.40;;;9.80;99.90;;;;;;5060457;28;20086;-60
2022/12/21 04:17:36;;;;;;;26.13;18.30;;;9.70;99.90;;;;;;5064095;28;20120;-59
2022/12/21 04:20:04;;;;;;;27.20;17.85;;;9.70;99.90;;;;;;5065333;28;20035;-59
2022/12/21 04:28:09;;;;;;;32.55;22.40;;;9.80;99.90;;;;;;5064365;28;20043;-60
2022/12/21 04:30:40;;;;;;;26.25;16.30;;;9.70;99.90;;;;;;5059342;28;20040;-60
2022/12/21 04:33:07;;;;;;;35.13;22.02;;;9.70;99.90;;;;;;5065212;28;20043;-60
2022/12/21 04:35:34;;;;;;;35.38;21.65;;;9.70;99.90;;;;;;5062899;28;20103;-60
2022/12/21 04:38:00;;;;;;;39.28;23.65;;;9.70;99.90;;;;;;5063561;28;20036;-60
2022/12/21 04:40:26;;;;;;;34.65;22.88;;;9.70;99.90;;;;;;5063757;28;20119;-60
2022/12/21 04:42:52;;;;;;;37.63;23.52;;;9.70;99.90;;;;;;5063119;28;20198;-60
2022/12/21 04:45:17;;;;;;;38.30;22.92;;;9.70;99.90;;;;;;5061273;28;20036;-60
2022/12/21 04:47:43;;;;;;;36.25;22.33;;;9.70;99.90;;;;;;5068178;28;20127;-61
2022/12/21 04:50:10;;;;;;;35.38;22.30;;;9.60;99.90;;;;;;5059294;28;20032;-61
2022/12/21 04:52:36;;;;;;;33.75;22.75;;;9.60;99.90;;;;;;5060071;28;20025;-60
2022/12/21 04:55:02;;;;;;;36.40;22.52;;;9.60;99.90;;;;;;5060343;28;20032;-60
2022/12/21 04:57:29;;;;;;;30.98;19.80;;;9.60;99.90;;;;;;5066112;28;20032;-61
2022/12/21 04:59:54;;;;;;;34.63;21.45;;;9.60;99.90;;;;;;5060740;28;20064;-61
2022/12/21 05:02:20;;;;;;;32.72;20.98;;;9.60;99.90;;;;;;5054940;28;20083;-61
2022/12/21 05:04:45;;;;;;;40.03;19.83;;;9.70;99.90;;;;;;5064370;28;20025;-61
2022/12/21 05:07:11;;;;;;;31.35;19.77;;;9.70;99.90;;;;;;5065591;28;20025;-60
2022/12/21 05:09:37;;;;;;;31.98;19.75;;;9.80;99.90;;;;;;5060509;28;20059;-61
2022/12/21 05:12:02;;;;;;;29.48;18.95;;;9.80;99.90;;;;;;5055254;28;20067;-61
2022/12/21 05:14:28;;;;;;;31.67;20.13;;;9.70;99.90;;;;;;5064467;28;20043;-62
2022/12/21 05:16:53;;;;;;;34.45;19.85;;;9.70;99.90;;;;;;5060434;28;20035;-62
2022/12/21 05:19:19;;;;;;;33.13;19.42;;;9.70;99.90;;;;;;5056157;28;20048;-61
2022/12/21 05:21:45;;;;;;;35.40;20.13;;;9.70;99.90;;;;;;5061313;28;20535;-60
2022/12/21 05:24:11;;;;;;;35.38;20.42;;;9.70;99.90;;;;;;5060864;28;20028;-61
2022/12/21 05:26:37;;;;;;;34.70;20.90;;;9.70;99.90;;;;;;5068282;28;20025;-60
2022/12/21 05:29:03;;;;;;;32.22;18.83;;;9.70;99.90;;;;;;5060701;28;20527;-61
2022/12/21 05:31:29;;;;;;;32.88;20.05;;;9.80;99.90;;;;;;5057808;28;20544;-60
2022/12/21 05:33:55;;;;;;;28.63;17.90;;;9.70;99.90;;;;;;5063924;28;20139;-61
2022/12/21 05:36:21;;;;;;;30.00;17.30;;;9.70;99.90;;;;;;5063698;28;22011;-60
2022/12/21 05:38:47;;;;;;;34.83;19.25;;;9.70;99.90;;;;;;5064500;28;20039;-61
2022/12/21 05:41:15;;;;;;;30.73;17.92;;;9.60;99.90;;;;;;5053766;28;20114;-61
2022/12/21 05:43:41;;;;;;;31.58;19.30;;;9.70;99.90;;;;;;5059146;28;20491;-61
2022/12/21 05:46:10;;;;;;;33.95;19.35;;;9.70;99.90;;;;;;5059673;28;20131;-61
2022/12/21 05:48:36;;;;;;;35.50;19.05;;;9.70;99.90;;;;;;5058022;28;20028;-60
2022/12/21 05:51:10;;;;;;;30.60;18.27;;;9.70;99.90;;;;;;5053972;28;20419;-60
2022/12/21 05:53:38;;;;;;;31.58;19.35;;;9.70;99.90;;;;;;5060975;28;20377;-61
2022/12/21 05:56:05;;;;;;;30.88;18.63;;;9.60;99.90;;;;;;5056642;28;20127;-60
2022/12/21 05:58:30;;;;;;;25.23;16.33;;;9.60;99.90;;;;;;5058436;28;20162;-61
2022/12/21 06:01:00;;;;;;;28.10;18.08;;;9.60;99.90;;;;;;5058280;28;20124;-61
2022/12/21 06:03:25;;;;;;;29.73;17.85;;;9.50;99.90;;;;;;5067249;28;20387;-61
2022/12/21 06:05:51;;;;;;;35.25;20.35;;;9.50;99.90;;;;;;5064264;28;20032;-61
2022/12/21 06:08:16;;;;;;;32.85;19.88;;;9.50;99.90;;;;;;5068740;28;20131;-61
2022/12/21 06:10:42;;;;;;;37.42;20.27;;;9.40;99.90;;;;;;5066207;28;20106;-62
2022/12/21 06:13:08;;;;;;;37.67;20.38;;;9.50;99.90;;;;;;5066761;28;20036;-62
2022/12/21 06:15:34;;;;;;;40.58;21.35;;;9.40;99.90;;;;;;5066223;28;20106;-61
2022/12/21 06:17:59;;;;;;;43.90;22.27;;;9.40;99.90;;;;;;5066574;28;20087;-61
2022/12/21 06:20:25;;;;;;;42.78;22.25;;;9.30;99.90;;;;;;5064331;28;20040;-60
2022/12/21 06:22:50;;;;;;;41.90;22.05;;;9.30;99.90;;;;;;5063498;28;20036;-61
2022/12/21 06:25:16;;;;;;;44.45;21.70;;;9.30;99.90;;;;;;5060835;28;20032;-62
2022/12/21 06:27:41;;;;;;;41.38;22.10;;;9.30;99.90;;;;;;5067659;28;20032;-62
2022/12/21 06:30:09;;;;;;;37.58;20.48;;;9.50;99.90;;;;;;5065232;28;20371;-61
2022/12/21 06:32:34;;;;;;;44.28;21.10;;;9.60;99.90;;;;;;5062974;28;20064;-61
2022/12/21 06:35:00;;;;;;;39.80;19.40;;;9.60;99.90;;;;;;5065224;28;20076;-60
2022/12/21 06:37:26;;;;;;;42.97;20.52;;;9.60;99.90;;;;;;5061242;28;20032;-61
2022/12/21 06:39:51;;;;;;;39.08;19.77;;;9.50;99.90;;;;;;5062966;28;20206;-61
2022/12/21 06:42:17;;;;;;;36.67;19.63;;;9.50;99.90;;;;;;5062148;28;20370;-60
2022/12/21 06:44:42;;;;;;;38.22;20.02;;;9.50;99.90;;;;;;5062015;28;20059;-61
2022/12/21 06:47:08;;;;;;;42.75;21.65;;;9.40;99.90;;;;;;5066819;28;20032;-61
2022/12/21 06:49:33;;;;;;;35.22;18.48;;;9.40;99.90;;;;;;5067548;28;20074;-60
2022/12/21 06:51:59;;;;;;;35.47;18.83;;;9.40;99.90;;;;;;5064800;28;20113;-61
2022/12/21 06:54:24;;;;;;;36.80;19.05;;;9.30;99.90;;;;;;5061298;28;20036;-61
2022/12/21 06:56:50;;;;;;;38.60;20.77;;;9.30;99.90;;;;;;5054591;28;20044;-61
2022/12/21 06:59:15;;;;;;;37.17;20.92;;;9.30;99.90;;;;;;5062066;28;20036;-61
2022/12/21 07:01:41;;;;;;;38.63;19.70;;;9.30;99.90;;;;;;5065436;28;20037;-61
2022/12/21 07:04:06;;;;;;;33.55;18.38;;;9.30;99.90;;;;;;5064242;28;20041;-62
2022/12/21 07:06:32;;;;;;;28.90;16.92;;;9.30;99.90;;;;;;5062982;28;20133;-61
2022/12/21 07:08:58;;;;;;;35.03;18.13;;;9.30;99.90;;;;;;5060295;28;20182;-61
2022/12/21 07:11:27;;;;;;;38.28;19.70;;;9.30;99.90;;;;;;5064553;28;20040;-61
2022/12/21 07:13:53;;;;;;;47.10;20.65;;;9.40;99.90;;;;;;5064196;28;20032;-62
2022/12/21 07:16:20;;;;;;;42.95;19.02;;;9.40;99.90;;;;;;5062422;28;20537;-61
2022/12/21 07:18:46;;;;;;;45.40;21.35;;;9.30;99.90;;;;;;5062797;28;20032;-60
2022/12/21 07:21:14;;;;;;;42.97;19.90;;;9.30;99.90;;;;;;5062967;28;20079;-60
2022/12/21 07:23:42;;;;;;;46.20;21.35;;;9.30;99.90;;;;;;5067445;28;20040;-60
2022/12/21 07:26:13;;;;;;;45.00;20.55;;;9.30;99.90;;;;;;5067542;28;20354;-60
2022/12/21 07:28:39;;;;;;;47.85;20.83;;;9.40;99.90;;;;;;5063202;28;20056;-60
2022/12/21 07:31:10;;;;;;;45.20;19.05;;;9.30;99.90;;;;;;5066371;28;20075;-61
2022/12/21 07:33:37;;;;;;;42.13;18.05;;;9.50;99.90;;;;;;5062867;28;20531;-61
2022/12/21 07:36:04;;;;;;;38.40;17.70;;;9.40;99.90;;;;;;5063709;28;20455;-61
2022/12/21 07:38:32;;;;;;;45.67;17.08;;;9.20;99.90;;;;;;5066484;28;20037;-62
2022/12/21 07:40:59;;;;;;;39.92;17.08;;;9.30;99.90;;;;;;5061095;28;20465;-61
2022/12/21 07:43:24;;;;;;;42.25;17.88;;;9.30;99.90;;;;;;5057735;28;20179;-61
2022/12/21 07:45:50;;;;;;;42.55;16.98;;;9.20;99.90;;;;;;5066577;28;20349;-61
2022/12/21 07:48:16;;;;;;;34.67;15.88;;;9.20;99.90;;;;;;5066065;28;20097;-62
2022/12/21 07:50:41;;;;;;;36.83;16.00;;;9.40;99.90;;;;;;5063508;28;20040;-62
2022/12/21 07:53:07;;;;;;;34.10;15.20;;;9.20;99.90;;;;;;5065247;28;20036;-62
2022/12/21 07:55:33;;;;;;;31.35;14.35;;;9.30;99.90;;;;;;5060600;28;20036;-62
2022/12/21 07:57:59;;;;;;;38.95;16.50;;;9.30;99.90;;;;;;5065729;28;20559;-61
2022/12/21 08:00:24;;;;;;;35.83;16.55;;;9.40;99.90;;;;;;5063676;28;20447;-62
2022/12/21 08:02:52;;;;;;;33.70;15.98;;;9.30;99.90;;;;;;5059984;28;20036;-62
2022/12/21 08:05:19;;;;;;;34.60;16.02;;;9.10;99.90;;;;;;5063331;28;20571;-62
2022/12/21 08:07:45;;;;;;;34.63;15.27;;;9.10;99.90;;;;;;5067395;28;20043;-61
2022/12/21 08:10:10;;;;;;;37.03;15.73;;;9.30;99.90;;;;;;5062356;28;20316;-61
2022/12/21 08:12:36;;;;;;;47.45;17.15;;;9.20;99.90;;;;;;5059916;28;20107;-62
2022/12/21 08:15:01;;;;;;;37.25;16.52;;;9.60;99.90;;;;;;5068395;28;20044;-63
2022/12/21 08:17:27;;;;;;;37.20;16.10;;;9.30;99.90;;;;;;5066390;28;20085;-61
2022/12/21 08:19:52;;;;;;;38.08;15.75;;;9.40;99.90;;;;;;5062925;28;20111;-62
2022/12/21 08:22:18;;;;;;;40.08;16.80;;;9.20;99.90;;;;;;5074473;28;20040;-62
2022/12/21 08:24:43;;;;;;;34.25;16.27;;;9.30;99.90;;;;;;5062243;28;20040;-61
2022/12/21 08:27:10;;;;;;;38.63;16.02;;;9.20;99.90;;;;;;5071172;28;20124;-62
2022/12/21 08:29:36;;;;;;;31.48;16.35;;;9.20;99.90;;;;;;5066890;28;20472;-63
2022/12/21 08:32:02;;;;;;;30.40;15.25;;;9.20;99.90;;;;;;5066575;28;20495;-62
2022/12/21 08:34:28;;;;;;;33.53;15.85;;;9.40;99.90;;;;;;5063934;28;20395;-63
2022/12/21 08:36:54;;;;;;;34.30;15.07;;;9.20;99.90;;;;;;5056393;28;20024;-62
2022/12/21 08:39:20;;;;;;;42.80;16.50;;;9.20;99.90;;;;;;5080159;28;20032;-62
2022/12/21 08:41:45;;;;;;;36.35;15.77;;;9.10;99.90;;;;;;5060386;28;20498;-63
2022/12/21 08:44:11;;;;;;;47.40;18.92;;;9.20;99.90;;;;;;5064963;28;20473;-63
2022/12/21 08:46:36;;;;;;;60.47;20.23;;;9.30;99.90;;;;;;5063804;28;20028;-62
2022/12/21 08:49:02;;;;;;;48.20;19.70;;;9.40;99.90;;;;;;5063342;28;20086;-62
2022/12/21 08:51:28;;;;;;;37.97;17.63;;;9.40;99.90;;;;;;5066667;28;20084;-64
2022/12/21 08:53:54;;;;;;;39.60;16.13;;;9.40;99.90;;;;;;5065286;28;20033;-62
2022/12/21 08:56:20;;;;;;;36.55;16.63;;;9.30;99.90;;;;;;5064863;28;20037;-62
2022/12/21 08:58:46;;;;;;;48.42;19.02;;;9.30;99.90;;;;;;5066279;28;20417;-63
2022/12/21 09:01:12;;;;;;;49.58;19.58;;;9.40;99.90;;;;;;5064684;28;20420;-63
2022/12/21 09:03:37;;;;;;;42.50;19.00;;;9.30;99.90;;;;;;5065105;28;20043;-64
2022/12/21 09:06:03;;;;;;;51.60;19.70;;;9.30;99.90;;;;;;5066692;28;20079;-65
2022/12/21 09:08:29;;;;;;;50.63;20.40;;;9.50;99.90;;;;;;5063174;28;20557;-63
2022/12/21 09:11:07;;;;;;;49.15;19.88;;;9.60;99.90;;;;;;5068594;28;20546;-63
2022/12/21 09:13:33;;;;;;;49.33;21.42;;;9.60;99.90;;;;;;5068465;28;20125;-62
2022/12/21 09:15:58;;;;;;;52.33;21.55;;;9.40;99.90;;;;;;5062481;28;20036;-63
2022/12/21 09:18:24;;;;;;;56.47;23.45;;;9.60;99.90;;;;;;5071583;28;20041;-61
2022/12/21 09:20:49;;;;;;;50.15;22.15;;;9.50;99.90;;;;;;5064351;28;20496;-63
2022/12/21 09:23:15;;;;;;;57.47;23.52;;;9.50;99.90;;;;;;5070501;28;20043;-63
2022/12/21 09:25:41;;;;;;;62.80;26.23;;;9.60;99.90;;;;;;5073367;28;20047;-63
2022/12/21 09:28:06;;;;;;;67.13;26.50;;;9.80;99.90;;;;;;5072512;28;20033;-61
2022/12/21 09:30:32;;;;;;;61.88;27.38;;;9.70;99.90;;;;;;5063359;28;20527;-64
2022/12/21 09:32:58;;;;;;;67.97;28.75;;;9.70;99.90;;;;;;5063141;28;20407;-63
2022/12/21 09:35:24;;;;;;;71.78;29.27;;;9.60;99.90;;;;;;5061855;28;20032;-61
2022/12/21 09:37:50;;;;;;;71.20;30.55;;;9.60;99.90;;;;;;5060444;28;20089;-61
2022/12/21 09:40:18;;;;;;;78.18;30.92;;;9.60;99.90;;;;;;5064780;28;20628;-61
2022/12/21 09:43:03;;;;;;;79.78;31.58;;;9.60;99.90;;;;;;5080221;28;20103;-62
2022/12/21 09:46:00;;;;;;;80.18;30.92;;;9.50;99.90;;;;;;5067898;28;20109;-63
2022/12/21 09:48:35;;;;;;;75.10;32.53;;;9.60;99.90;;;;;;5072076;28;20028;-61
2022/12/21 09:51:12;;;;;;;76.60;31.67;;;9.60;99.90;;;;;;5065369;28;20393;-64
2022/12/21 09:53:44;;;;;;;82.75;34.20;;;9.60;99.90;;;;;;5058640;28;20143;-63
2022/12/21 09:56:15;;;;;;;83.13;33.80;;;9.70;99.90;;;;;;5073564;28;20033;-61
2022/12/21 09:58:43;;;;;;;84.47;34.42;;;9.70;99.90;;;;;;5065852;28;20852;-64
2022/12/21 10:01:21;;;;;;;91.60;36.75;;;9.70;99.90;;;;;;5068611;28;20563;-62
2022/12/21 10:03:56;;;;;;;93.43;37.90;;;9.80;99.90;;;;;;5062328;28;20033;-60
2022/12/21 10:06:39;;;;;;;87.65;36.00;;;9.70;99.90;;;;;;5069005;28;20461;-61
2022/12/21 10:09:52;;;;;;;81.30;37.33;;;9.70;99.90;;;;;;5071656;28;20028;-62
2022/12/21 10:12:29;;;;;;;92.85;38.47;;;9.70;99.90;;;;;;5064186;28;20480;-61
2022/12/21 10:15:15;;;;;;;85.57;37.22;;;9.70;99.90;;;;;;5066282;28;20490;-61
2022/12/21 10:18:11;;;;;;;80.72;34.08;;;9.80;99.90;;;;;;5068529;28;20029;-61
2022/12/21 10:20:44;;;;;;;68.55;29.05;;;9.70;99.90;;;;;;5067311;28;20024;-61
2022/12/21 10:23:30;;;;;;;;;;;9.60;99.90;;;;;;5064975;28;20653;-61
2022/12/21 10:26:02;;;;;;;61.95;25.90;;;9.50;99.90;;;;;;5065233;28;19917;-62
2022/12/21 10:28:42;;;;;;;59.95;23.17;;;9.60;99.90;;;;;;5066859;28;20028;-62
2022/12/21 10:31:10;;;;;;;55.63;21.52;;;9.50;99.90;;;;;;5071263;28;20178;-62
2022/12/21 10:33:40;;;;;;;45.97;18.27;;;9.50;99.90;;;;;;5077973;28;20032;-63
2022/12/21 10:36:11;;;;;;;48.17;19.13;;;9.50;99.90;;;;;;5070211;28;20103;-61
2022/12/21 10:38:37;;;;;;;51.35;20.38;;;9.60;99.90;;;;;;5061814;28;20784;-61
2022/12/21 10:41:09;;;;;;;50.78;20.90;;;9.60;99.90;;;;;;5063265;28;20089;-61
2022/12/21 10:43:39;;;;;;;55.53;22.65;;;9.70;99.90;;;;;;5060505;28;20033;-61
2022/12/21 10:46:05;;;;;;;74.20;25.10;;;9.80;99.90;;;;;;5069975;28;20041;-61
2022/12/21 10:48:32;;;;;;;52.72;22.73;;;9.90;99.90;;;;;;5067068;28;20043;-61
2022/12/21 10:51:18;;;;;;;54.80;21.88;;;9.80;99.90;;;;;;5064985;28;20052;-62
2022/12/21 10:53:59;;;;;;;47.15;21.17;;;9.80;99.90;;;;;;5067343;28;20097;-61
2022/12/21 10:56:25;;;;;;;45.53;20.23;;;9.80;99.90;;;;;;5056342;28;20431;-62
2022/12/21 10:58:53;;;;;;;45.08;18.77;;;9.70;99.90;;;;;;5064338;28;20544;-61
2022/12/21 11:01:28;;;;;;;45.97;19.27;;;9.80;99.90;;;;;;5067426;28;20544;-61
2022/12/21 11:04:13;;;;;;;36.08;17.10;;;9.80;99.90;;;;;;5070864;28;20453;-61
2022/12/21 11:06:39;;;;;;;41.88;18.13;;;9.80;99.90;;;;;;5072657;28;20052;-62
2022/12/21 11:09:26;;;;;;;49.63;18.25;;;9.90;99.90;;;;;;5071193;28;20087;-62
2022/12/21 11:11:53;;;;;;;37.92;16.73;;;9.90;99.90;;;;;;5059121;28;20039;-61
2022/12/21 11:14:19;;;;;;;38.75;16.67;;;9.90;99.90;;;;;;5066011;28;20033;-61
2022/12/21 11:16:45;;;;;;;39.60;16.63;;;9.80;99.90;;;;;;5065732;28;20039;-61
2022/12/21 11:19:19;;;;;;;36.60;16.13;;;9.80;99.90;;;;;;5066510;28;20063;-63
2022/12/21 11:21:53;;;;;;;40.55;17.35;;;9.80;99.90;;;;;;5070890;28;20062;-62
2022/12/21 11:24:21;;;;;;;38.53;18.38;;;9.90;99.90;;;;;;5063279;28;20392;-62
2022/12/21 11:27:09;;;;;;;39.40;18.02;;;9.90;99.90;;;;;;5060868;28;20112;-61
2022/12/21 11:29:47;;;;;;;37.42;18.60;;;9.90;99.90;;;;;;5043585;28;20463;-61
2022/12/21 11:32:15;;;;;;;38.95;18.17;;;9.90;99.90;;;;;;5064091;28;20115;-61
2022/12/21 11:34:52;;;;;;;46.65;18.38;;;9.80;99.90;;;;;;5065638;28;20101;-61
2022/12/21 11:37:36;;;;;;;40.55;17.33;;;9.80;99.90;;;;;;5064054;28;20094;-60
2022/12/21 11:40:29;;;;;;;44.78;19.30;;;9.80;99.90;;;;;;5062950;28;20048;-61
2022/12/21 11:42:54;;;;;;;39.43;19.13;;;9.80;99.90;;;;;;5062032;28;20041;-61
2022/12/21 11:45:39;;;;;;;39.45;17.73;;;9.80;99.90;;;;;;5068952;28;20328;-62
2022/12/21 11:48:15;;;;;;;40.63;17.00;;;9.80;99.90;;;;;;5068265;28;20492;-62
2022/12/21 11:51:14;;;;;;;40.65;17.38;;;9.80;99.90;;;;;;5064055;28;20495;-60
2022/12/21 11:53:52;;;;;;;44.28;16.65;;;9.70;99.90;;;;;;5061350;28;20032;-62
2022/12/21 11:57:14;;;;;;;35.25;16.52;;;9.70;99.90;;;;;;5064344;28;20117;-61
2022/12/21 12:00:12;;;;;;;36.75;16.10;;;9.80;99.90;;;;;;5012113;28;20083;-61
2022/12/21 12:03:06;;;;;;;33.00;16.63;;;9.70;99.90;;;;;;5031229;28;20124;-62
2022/12/21 12:05:56;;;;;;;37.60;16.33;;;9.90;99.90;;;;;;5062541;28;20442;-61
2022/12/21 12:09:01;;;;;;;25.63;14.55;;;9.90;99.90;;;;;;5073902;28;20490;-62
2022/12/21 12:11:46;;;;;;;33.58;15.85;;;9.80;99.90;;;;;;5060917;28;20025;-61
2022/12/21 12:14:41;;;;;;;33.53;17.02;;;9.80;99.90;;;;;;5066353;28;20025;-62
2022/12/21 12:17:38;;;;;;;36.03;17.75;;;9.70;99.90;;;;;;5060397;28;20037;-61
2022/12/21 12:20:18;;;;;;;36.08;17.98;;;9.70;99.90;;;;;;5063917;28;20120;-61
2022/12/21 12:22:59;;;;;;;32.70;16.05;;;9.60;99.90;;;;;;5058515;28;20051;-62
2022/12/21 12:25:33;;;;;;;31.65;14.93;;;9.60;99.90;;;;;;5062044;28;20102;-62
2022/12/21 12:28:27;;;;;;;31.50;14.18;;;9.60;99.90;;;;;;5062831;28;20097;-63
2022/12/21 12:31:29;;;;;;;28.00;13.68;;;9.70;99.90;;;;;;5069812;28;20036;-60
2022/12/21 12:34:09;;;;;;;26.33;12.32;;;9.70;99.90;;;;;;5057902;28;20666;-62
2022/12/21 12:37:02;;;;;;;36.03;14.75;;;9.60;99.90;;;;;;5056943;28;20029;-61
2022/12/21 12:39:46;;;;;;;27.20;13.50;;;9.70;99.90;;;;;;5064952;28;20496;-61
2022/12/21 12:42:23;;;;;;;27.45;13.32;;;9.60;99.90;;;;;;5056401;28;20515;-61
2022/12/21 12:45:13;;;;;;;25.67;12.88;;;9.50;99.90;;;;;;5062302;28;20166;-63
2022/12/21 12:48:13;;;;;;;27.98;13.13;;;9.60;99.90;;;;;;5058055;28;20040;-62
2022/12/21 12:50:43;;;;;;;31.83;12.77;;;9.60;99.90;;;;;;5064299;28;20040;-60
2022/12/21 12:53:37;;;;;;;25.70;11.82;;;9.60;99.90;;;;;;5064000;28;20575;-61
2022/12/21 12:56:23;;;;;;;28.20;11.93;;;9.50;99.90;;;;;;5068371;28;20450;-60
2022/12/21 12:59:26;;;;;;;21.48;9.57;;;9.60;99.90;;;;;;5058822;28;20021;-61
2022/12/21 13:02:01;;;;;;;23.27;8.98;;;9.60;99.90;;;;;;5075831;28;20057;-61
2022/12/21 13:05:00;;;;;;;20.38;7.60;;;9.60;99.90;;;;;;5066764;28;20033;-61
2022/12/21 13:07:42;;;;;;;18.45;7.60;;;9.60;99.90;;;;;;5063561;28;20021;-61
2022/12/21 13:10:18;;;;;;;18.83;6.93;;;9.60;99.90;;;;;;5061653;28;20082;-62